sensor_id;sensor_type;location;lat;lon;timestamp;P1;durP1;ratioP1;P2;durP2;ratioP2
77204;SDS011;66188;46.626;18.866;2022-12-18T00:04:00;7.93;;;5.43;;
77204;SDS011;66188;46.626;18.866;2022-12-18T00:06:27;8.00;;;5.90;;
77204;SDS011;66188;46.626;18.866;2022-12-18T00:08:54;9.25;;;5.88;;
77204;SDS011;66188;46.626;18.866;2022-12-18T00:11:23;10.25;;;6.35;;
77204;SDS011;66188;46.626;18.866;2022-12-18T00:13:50;8.23;;;5.88;;
77204;SDS011;66188;46.626;18.866;2022-12-18T00:16:20;8.77;;;5.85;;
77204;SDS011;66188;46.626;18.866;2022-12-18T00:18:48;8.38;;;5.72;;
77204;SDS011;66188;46.626;18.866;2022-12-18T00:21:14;7.18;;;5.65;;
77204;SDS011;66188;46.626;18.866;2022-12-18T00:23:41;8.30;;;5.70;;
77204;SDS011;66188;46.626;18.866;2022-12-18T00:26:12;7.47;;;5.57;;
77204;SDS011;66188;46.626;18.866;2022-12-18T00:28:42;8.52;;;5.72;;
77204;SDS011;66188;46.626;18.866;2022-12-18T00:31:10;8.82;;;5.47;;
77204;SDS011;66188;46.626;18.866;2022-12-18T00:33:37;9.00;;;5.88;;
77204;SDS011;66188;46.626;18.866;2022-12-18T00:36:03;9.25;;;5.75;;
77204;SDS011;66188;46.626;18.866;2022-12-18T00:38:30;9.52;;;6.20;;
77204;SDS011;66188;46.626;18.866;2022-12-18T00:40:57;7.45;;;5.43;;
77204;SDS011;66188;46.626;18.866;2022-12-18T00:43:22;7.63;;;5.40;;
77204;SDS011;66188;46.626;18.866;2022-12-18T00:45:48;9.82;;;5.75;;
77204;SDS011;66188;46.626;18.866;2022-12-18T00:48:13;8.57;;;5.45;;
77204;SDS011;66188;46.626;18.866;2022-12-18T00:50:39;8.95;;;6.07;;
77204;SDS011;66188;46.626;18.866;2022-12-18T00:53:04;9.80;;;6.20;;
77204;SDS011;66188;46.626;18.866;2022-12-18T00:55:30;8.60;;;5.15;;
77204;SDS011;66188;46.626;18.866;2022-12-18T00:57:55;7.80;;;5.82;;
77204;SDS011;66188;46.626;18.866;2022-12-18T01:00:21;8.20;;;5.63;;
77204;SDS011;66188;46.626;18.866;2022-12-18T01:02:47;7.78;;;6.00;;
77204;SDS011;66188;46.626;18.866;2022-12-18T01:05:13;8.35;;;5.95;;
77204;SDS011;66188;46.626;18.866;2022-12-18T01:07:39;8.38;;;5.88;;
77204;SDS011;66188;46.626;18.866;2022-12-18T01:10:05;8.68;;;5.07;;
77204;SDS011;66188;46.626;18.866;2022-12-18T01:12:31;7.72;;;5.65;;
77204;SDS011;66188;46.626;18.866;2022-12-18T01:14:57;9.27;;;5.38;;
77204;SDS011;66188;46.626;18.866;2022-12-18T01:17:23;9.55;;;5.45;;
77204;SDS011;66188;46.626;18.866;2022-12-18T01:19:48;6.82;;;4.95;;
77204;SDS011;66188;46.626;18.866;2022-12-18T01:22:14;7.78;;;5.40;;
77204;SDS011;66188;46.626;18.866;2022-12-18T01:24:39;7.30;;;5.25;;
77204;SDS011;66188;46.626;18.866;2022-12-18T01:27:05;7.18;;;5.20;;
77204;SDS011;66188;46.626;18.866;2022-12-18T01:29:30;10.50;;;5.40;;
77204;SDS011;66188;46.626;18.866;2022-12-18T01:31:56;7.93;;;5.50;;
77204;SDS011;66188;46.626;18.866;2022-12-18T01:34:22;8.07;;;5.88;;
77204;SDS011;66188;46.626;18.866;2022-12-18T01:36:48;8.88;;;5.88;;
77204;SDS011;66188;46.626;18.866;2022-12-18T01:39:14;8.70;;;5.60;;
77204;SDS011;66188;46.626;18.866;2022-12-18T01:41:40;8.45;;;5.35;;
77204;SDS011;66188;46.626;18.866;2022-12-18T01:52:51;8.90;;;5.47;;
77204;SDS011;66188;46.626;18.866;2022-12-18T01:55:21;8.48;;;5.63;;
77204;SDS011;66188;46.626;18.866;2022-12-18T01:57:49;8.05;;;5.57;;
77204;SDS011;66188;46.626;18.866;2022-12-18T02:00:19;8.43;;;4.97;;
77204;SDS011;66188;46.626;18.866;2022-12-18T02:02:46;8.63;;;5.40;;
77204;SDS011;66188;46.626;18.866;2022-12-18T02:05:14;6.85;;;4.82;;
77204;SDS011;66188;46.626;18.866;2022-12-18T02:10:31;7.57;;;5.50;;
77204;SDS011;66188;46.626;18.866;2022-12-18T02:13:13;8.00;;;5.45;;
77204;SDS011;66188;46.626;18.866;2022-12-18T02:18:10;8.50;;;5.15;;
77204;SDS011;66188;46.626;18.866;2022-12-18T02:26:27;7.78;;;5.40;;
77204;SDS011;66188;46.626;18.866;2022-12-18T02:29:13;7.63;;;5.60;;
77204;SDS011;66188;46.626;18.866;2022-12-18T02:31:43;8.00;;;5.72;;
77204;SDS011;66188;46.626;18.866;2022-12-18T02:34:15;7.68;;;4.95;;
77204;SDS011;66188;46.626;18.866;2022-12-18T02:36:43;6.50;;;4.88;;
77204;SDS011;66188;46.626;18.866;2022-12-18T02:39:11;7.18;;;5.60;;
77204;SDS011;66188;46.626;18.866;2022-12-18T02:41:38;7.57;;;5.18;;
77204;SDS011;66188;46.626;18.866;2022-12-18T02:44:09;7.72;;;5.30;;
77204;SDS011;66188;46.626;18.866;2022-12-18T02:46:56;7.53;;;4.88;;
77204;SDS011;66188;46.626;18.866;2022-12-18T02:49:39;8.38;;;5.22;;
77204;SDS011;66188;46.626;18.866;2022-12-18T02:52:24;8.10;;;5.38;;
77204;SDS011;66188;46.626;18.866;2022-12-18T02:55:04;8.15;;;5.30;;
77204;SDS011;66188;46.626;18.866;2022-12-18T02:57:58;7.65;;;5.28;;
77204;SDS011;66188;46.626;18.866;2022-12-18T03:00:29;7.57;;;4.68;;
77204;SDS011;66188;46.626;18.866;2022-12-18T03:03:03;7.55;;;5.53;;
77204;SDS011;66188;46.626;18.866;2022-12-18T03:05:38;8.30;;;5.15;;
77204;SDS011;66188;46.626;18.866;2022-12-18T03:08:15;8.00;;;5.75;;
77204;SDS011;66188;46.626;18.866;2022-12-18T03:10:45;7.15;;;5.22;;
77204;SDS011;66188;46.626;18.866;2022-12-18T03:13:17;7.72;;;5.40;;
77204;SDS011;66188;46.626;18.866;2022-12-18T03:15:49;7.85;;;5.45;;
77204;SDS011;66188;46.626;18.866;2022-12-18T03:18:22;7.57;;;4.97;;
77204;SDS011;66188;46.626;18.866;2022-12-18T03:20:51;6.65;;;4.93;;
77204;SDS011;66188;46.626;18.866;2022-12-18T03:25:50;7.57;;;5.25;;
77204;SDS011;66188;46.626;18.866;2022-12-18T03:28:20;7.38;;;5.03;;
77204;SDS011;66188;46.626;18.866;2022-12-18T03:30:47;7.55;;;5.25;;
77204;SDS011;66188;46.626;18.866;2022-12-18T03:33:19;8.85;;;5.60;;
77204;SDS011;66188;46.626;18.866;2022-12-18T03:35:52;8.40;;;5.10;;
77204;SDS011;66188;46.626;18.866;2022-12-18T03:38:18;8.75;;;6.07;;
77204;SDS011;66188;46.626;18.866;2022-12-18T03:43:35;8.15;;;5.32;;
77204;SDS011;66188;46.626;18.866;2022-12-18T03:46:47;7.72;;;5.38;;
77204;SDS011;66188;46.626;18.866;2022-12-18T03:49:08;7.80;;;5.07;;
77204;SDS011;66188;46.626;18.866;2022-12-18T03:52:02;7.80;;;5.53;;
77204;SDS011;66188;46.626;18.866;2022-12-18T03:54:31;8.25;;;5.43;;
77204;SDS011;66188;46.626;18.866;2022-12-18T03:56:59;7.35;;;5.07;;
77204;SDS011;66188;46.626;18.866;2022-12-18T03:59:29;8.73;;;5.57;;
77204;SDS011;66188;46.626;18.866;2022-12-18T04:01:57;7.32;;;4.82;;
77204;SDS011;66188;46.626;18.866;2022-12-18T04:04:24;8.38;;;5.82;;
77204;SDS011;66188;46.626;18.866;2022-12-18T04:06:52;7.47;;;5.15;;
77204;SDS011;66188;46.626;18.866;2022-12-18T04:09:19;7.90;;;5.32;;
77204;SDS011;66188;46.626;18.866;2022-12-18T04:11:45;6.90;;;5.38;;
77204;SDS011;66188;46.626;18.866;2022-12-18T04:14:12;7.97;;;5.45;;
77204;SDS011;66188;46.626;18.866;2022-12-18T04:16:37;7.28;;;5.20;;
77204;SDS011;66188;46.626;18.866;2022-12-18T04:19:03;7.05;;;4.97;;
77204;SDS011;66188;46.626;18.866;2022-12-18T04:21:29;7.43;;;5.07;;
77204;SDS011;66188;46.626;18.866;2022-12-18T04:23:55;7.50;;;5.53;;
77204;SDS011;66188;46.626;18.866;2022-12-18T04:26:20;8.45;;;5.90;;
77204;SDS011;66188;46.626;18.866;2022-12-18T04:28:46;7.68;;;5.05;;
77204;SDS011;66188;46.626;18.866;2022-12-18T04:31:11;7.32;;;5.03;;
77204;SDS011;66188;46.626;18.866;2022-12-18T04:33:37;8.90;;;5.93;;
77204;SDS011;66188;46.626;18.866;2022-12-18T04:36:03;7.68;;;5.65;;
77204;SDS011;66188;46.626;18.866;2022-12-18T04:38:29;8.02;;;5.53;;
77204;SDS011;66188;46.626;18.866;2022-12-18T04:40:54;7.55;;;5.10;;
77204;SDS011;66188;46.626;18.866;2022-12-18T04:43:20;7.95;;;5.68;;
77204;SDS011;66188;46.626;18.866;2022-12-18T04:45:45;7.22;;;5.55;;
77204;SDS011;66188;46.626;18.866;2022-12-18T04:48:11;6.53;;;4.70;;
77204;SDS011;66188;46.626;18.866;2022-12-18T04:50:36;6.57;;;4.70;;
77204;SDS011;66188;46.626;18.866;2022-12-18T04:53:01;7.82;;;5.68;;
77204;SDS011;66188;46.626;18.866;2022-12-18T04:55:27;7.65;;;5.38;;
77204;SDS011;66188;46.626;18.866;2022-12-18T04:57:52;7.90;;;5.38;;
77204;SDS011;66188;46.626;18.866;2022-12-18T05:00:18;9.13;;;5.68;;
77204;SDS011;66188;46.626;18.866;2022-12-18T05:02:44;7.40;;;5.13;;
77204;SDS011;66188;46.626;18.866;2022-12-18T05:05:10;7.43;;;4.97;;
77204;SDS011;66188;46.626;18.866;2022-12-18T05:07:36;8.38;;;5.50;;
77204;SDS011;66188;46.626;18.866;2022-12-18T05:10:01;8.43;;;5.75;;
77204;SDS011;66188;46.626;18.866;2022-12-18T05:12:27;10.60;;;5.70;;
77204;SDS011;66188;46.626;18.866;2022-12-18T05:14:53;7.90;;;4.85;;
77204;SDS011;66188;46.626;18.866;2022-12-18T05:17:18;7.55;;;5.75;;
77204;SDS011;66188;46.626;18.866;2022-12-18T05:19:44;7.55;;;4.97;;
77204;SDS011;66188;46.626;18.866;2022-12-18T05:22:09;6.90;;;5.20;;
77204;SDS011;66188;46.626;18.866;2022-12-18T05:24:35;6.75;;;4.90;;
77204;SDS011;66188;46.626;18.866;2022-12-18T05:27:00;7.93;;;5.03;;
77204;SDS011;66188;46.626;18.866;2022-12-18T05:29:26;7.68;;;4.97;;
77204;SDS011;66188;46.626;18.866;2022-12-18T05:31:51;7.60;;;5.18;;
77204;SDS011;66188;46.626;18.866;2022-12-18T05:34:17;9.15;;;5.28;;
77204;SDS011;66188;46.626;18.866;2022-12-18T05:36:42;7.38;;;5.70;;
77204;SDS011;66188;46.626;18.866;2022-12-18T05:39:08;6.43;;;5.32;;
77204;SDS011;66188;46.626;18.866;2022-12-18T05:41:33;7.50;;;5.35;;
77204;SDS011;66188;46.626;18.866;2022-12-18T05:43:59;7.80;;;5.75;;
77204;SDS011;66188;46.626;18.866;2022-12-18T05:46:25;6.82;;;5.07;;
77204;SDS011;66188;46.626;18.866;2022-12-18T05:48:51;7.80;;;5.75;;
77204;SDS011;66188;46.626;18.866;2022-12-18T05:51:17;7.95;;;5.18;;
77204;SDS011;66188;46.626;18.866;2022-12-18T05:53:45;7.45;;;5.40;;
77204;SDS011;66188;46.626;18.866;2022-12-18T05:56:15;7.43;;;5.53;;
77204;SDS011;66188;46.626;18.866;2022-12-18T05:58:42;7.95;;;5.60;;
77204;SDS011;66188;46.626;18.866;2022-12-18T06:01:09;8.95;;;5.97;;
77204;SDS011;66188;46.626;18.866;2022-12-18T06:03:49;8.05;;;5.43;;
77204;SDS011;66188;46.626;18.866;2022-12-18T06:06:16;9.02;;;5.63;;
77204;SDS011;66188;46.626;18.866;2022-12-18T06:08:47;6.93;;;5.57;;
77204;SDS011;66188;46.626;18.866;2022-12-18T06:11:15;8.40;;;5.68;;
77204;SDS011;66188;46.626;18.866;2022-12-18T06:13:42;7.40;;;5.30;;
77204;SDS011;66188;46.626;18.866;2022-12-18T06:16:07;7.07;;;4.88;;
77204;SDS011;66188;46.626;18.866;2022-12-18T06:18:33;8.60;;;6.57;;
77204;SDS011;66188;46.626;18.866;2022-12-18T06:20:59;8.38;;;5.00;;
77204;SDS011;66188;46.626;18.866;2022-12-18T06:23:25;8.13;;;5.28;;
77204;SDS011;66188;46.626;18.866;2022-12-18T06:25:51;7.32;;;5.28;;
77204;SDS011;66188;46.626;18.866;2022-12-18T06:28:17;8.13;;;5.45;;
77204;SDS011;66188;46.626;18.866;2022-12-18T06:30:43;8.15;;;5.50;;
77204;SDS011;66188;46.626;18.866;2022-12-18T06:33:09;6.53;;;4.75;;
77204;SDS011;66188;46.626;18.866;2022-12-18T06:35:34;8.75;;;5.22;;
77204;SDS011;66188;46.626;18.866;2022-12-18T06:38:00;7.32;;;5.47;;
77204;SDS011;66188;46.626;18.866;2022-12-18T06:40:27;6.90;;;5.28;;
77204;SDS011;66188;46.626;18.866;2022-12-18T06:42:52;7.55;;;5.50;;
77204;SDS011;66188;46.626;18.866;2022-12-18T06:45:17;7.65;;;5.40;;
77204;SDS011;66188;46.626;18.866;2022-12-18T06:47:43;7.72;;;5.45;;
77204;SDS011;66188;46.626;18.866;2022-12-18T06:50:08;7.63;;;5.53;;
77204;SDS011;66188;46.626;18.866;2022-12-18T06:52:34;8.38;;;5.35;;
77204;SDS011;66188;46.626;18.866;2022-12-18T06:54:59;7.13;;;5.22;;
77204;SDS011;66188;46.626;18.866;2022-12-18T06:57:25;8.00;;;5.45;;
77204;SDS011;66188;46.626;18.866;2022-12-18T06:59:50;7.00;;;5.50;;
77204;SDS011;66188;46.626;18.866;2022-12-18T07:02:16;8.43;;;6.13;;
77204;SDS011;66188;46.626;18.866;2022-12-18T07:04:42;6.30;;;5.00;;
77204;SDS011;66188;46.626;18.866;2022-12-18T07:07:07;7.82;;;5.18;;
77204;SDS011;66188;46.626;18.866;2022-12-18T07:09:33;7.55;;;5.55;;
77204;SDS011;66188;46.626;18.866;2022-12-18T07:11:58;7.60;;;5.30;;
77204;SDS011;66188;46.626;18.866;2022-12-18T07:14:24;7.90;;;5.78;;
77204;SDS011;66188;46.626;18.866;2022-12-18T07:16:49;7.68;;;5.25;;
77204;SDS011;66188;46.626;18.866;2022-12-18T07:19:15;7.50;;;5.25;;
77204;SDS011;66188;46.626;18.866;2022-12-18T07:21:40;7.25;;;5.30;;
77204;SDS011;66188;46.626;18.866;2022-12-18T07:24:06;7.30;;;5.05;;
77204;SDS011;66188;46.626;18.866;2022-12-18T07:26:31;7.90;;;5.63;;
77204;SDS011;66188;46.626;18.866;2022-12-18T07:28:57;6.03;;;4.72;;
77204;SDS011;66188;46.626;18.866;2022-12-18T07:31:22;6.57;;;4.80;;
77204;SDS011;66188;46.626;18.866;2022-12-18T07:33:49;6.40;;;5.10;;
77204;SDS011;66188;46.626;18.866;2022-12-18T07:36:15;8.13;;;5.43;;
77204;SDS011;66188;46.626;18.866;2022-12-18T07:38:41;7.18;;;4.95;;
77204;SDS011;66188;46.626;18.866;2022-12-18T07:41:08;7.10;;;4.85;;
77204;SDS011;66188;46.626;18.866;2022-12-18T07:43:36;8.15;;;5.35;;
77204;SDS011;66188;46.626;18.866;2022-12-18T07:46:02;7.70;;;4.97;;
77204;SDS011;66188;46.626;18.866;2022-12-18T07:48:28;6.60;;;4.80;;
77204;SDS011;66188;46.626;18.866;2022-12-18T07:50:58;6.85;;;4.90;;
77204;SDS011;66188;46.626;18.866;2022-12-18T07:53:24;10.45;;;4.55;;
77204;SDS011;66188;46.626;18.866;2022-12-18T07:55:54;6.30;;;4.43;;
77204;SDS011;66188;46.626;18.866;2022-12-18T07:58:22;6.53;;;4.78;;
77204;SDS011;66188;46.626;18.866;2022-12-18T08:00:48;7.18;;;4.70;;
77204;SDS011;66188;46.626;18.866;2022-12-18T08:03:13;7.25;;;4.75;;
77204;SDS011;66188;46.626;18.866;2022-12-18T08:05:39;6.78;;;4.78;;
77204;SDS011;66188;46.626;18.866;2022-12-18T08:08:04;6.28;;;4.32;;
77204;SDS011;66188;46.626;18.866;2022-12-18T08:10:30;7.30;;;4.63;;
77204;SDS011;66188;46.626;18.866;2022-12-18T08:12:55;7.88;;;4.78;;
77204;SDS011;66188;46.626;18.866;2022-12-18T08:15:21;7.93;;;4.93;;
77204;SDS011;66188;46.626;18.866;2022-12-18T08:17:46;9.75;;;5.63;;
77204;SDS011;66188;46.626;18.866;2022-12-18T08:20:12;9.15;;;5.72;;
77204;SDS011;66188;46.626;18.866;2022-12-18T08:22:40;9.52;;;5.70;;
77204;SDS011;66188;46.626;18.866;2022-12-18T08:25:06;11.73;;;6.10;;
77204;SDS011;66188;46.626;18.866;2022-12-18T08:27:32;11.25;;;6.95;;
77204;SDS011;66188;46.626;18.866;2022-12-18T08:29:58;14.35;;;8.00;;
77204;SDS011;66188;46.626;18.866;2022-12-18T08:32:24;13.57;;;7.32;;
77204;SDS011;66188;46.626;18.866;2022-12-18T08:34:50;16.27;;;9.40;;
77204;SDS011;66188;46.626;18.866;2022-12-18T08:37:16;16.23;;;9.13;;
77204;SDS011;66188;46.626;18.866;2022-12-18T08:39:41;16.60;;;9.55;;
77204;SDS011;66188;46.626;18.866;2022-12-18T08:42:07;20.27;;;10.50;;
77204;SDS011;66188;46.626;18.866;2022-12-18T08:44:50;19.63;;;11.55;;
77204;SDS011;66188;46.626;18.866;2022-12-18T08:47:16;15.88;;;9.20;;
77204;SDS011;66188;46.626;18.866;2022-12-18T08:49:41;17.73;;;9.30;;
77204;SDS011;66188;46.626;18.866;2022-12-18T08:52:07;22.15;;;11.32;;
77204;SDS011;66188;46.626;18.866;2022-12-18T08:54:32;20.75;;;10.95;;
77204;SDS011;66188;46.626;18.866;2022-12-18T08:56:58;20.48;;;10.88;;
77204;SDS011;66188;46.626;18.866;2022-12-18T08:59:23;19.15;;;10.00;;
77204;SDS011;66188;46.626;18.866;2022-12-18T09:01:49;18.88;;;10.32;;
77204;SDS011;66188;46.626;18.866;2022-12-18T09:04:14;22.65;;;10.50;;
77204;SDS011;66188;46.626;18.866;2022-12-18T09:06:39;18.75;;;9.88;;
77204;SDS011;66188;46.626;18.866;2022-12-18T09:09:05;17.58;;;9.32;;
77204;SDS011;66188;46.626;18.866;2022-12-18T09:11:31;20.73;;;8.98;;
77204;SDS011;66188;46.626;18.866;2022-12-18T09:13:58;18.05;;;9.95;;
77204;SDS011;66188;46.626;18.866;2022-12-18T09:16:25;18.45;;;9.02;;
77204;SDS011;66188;46.626;18.866;2022-12-18T09:18:53;24.73;;;12.40;;
77204;SDS011;66188;46.626;18.866;2022-12-18T09:21:24;18.88;;;12.05;;
77204;SDS011;66188;46.626;18.866;2022-12-18T09:23:51;21.48;;;11.40;;
77204;SDS011;66188;46.626;18.866;2022-12-18T09:26:17;19.63;;;10.75;;
77204;SDS011;66188;46.626;18.866;2022-12-18T09:28:43;15.10;;;9.65;;
77204;SDS011;66188;46.626;18.866;2022-12-18T09:31:10;17.35;;;10.48;;
77204;SDS011;66188;46.626;18.866;2022-12-18T09:33:37;17.52;;;10.13;;
77204;SDS011;66188;46.626;18.866;2022-12-18T09:36:04;19.38;;;10.68;;
77204;SDS011;66188;46.626;18.866;2022-12-18T09:38:31;22.42;;;11.20;;
77204;SDS011;66188;46.626;18.866;2022-12-18T09:40:59;25.42;;;9.88;;
77204;SDS011;66188;46.626;18.866;2022-12-18T09:43:30;22.33;;;10.50;;
77204;SDS011;66188;46.626;18.866;2022-12-18T09:46:03;17.23;;;9.70;;
77204;SDS011;66188;46.626;18.866;2022-12-18T09:48:43;18.50;;;9.85;;
77204;SDS011;66188;46.626;18.866;2022-12-18T09:51:16;16.85;;;9.05;;
77204;SDS011;66188;46.626;18.866;2022-12-18T09:53:51;15.13;;;8.82;;
77204;SDS011;66188;46.626;18.866;2022-12-18T09:56:22;16.45;;;9.63;;
77204;SDS011;66188;46.626;18.866;2022-12-18T09:58:58;15.27;;;9.05;;
77204;SDS011;66188;46.626;18.866;2022-12-18T10:01:26;18.23;;;10.25;;
77204;SDS011;66188;46.626;18.866;2022-12-18T10:03:52;13.68;;;8.88;;
77204;SDS011;66188;46.626;18.866;2022-12-18T10:14:46;15.05;;;8.43;;
77204;SDS011;66188;46.626;18.866;2022-12-18T10:22:39;13.45;;;7.85;;
77204;SDS011;66188;46.626;18.866;2022-12-18T10:25:27;14.30;;;7.95;;
77204;SDS011;66188;46.626;18.866;2022-12-18T10:28:00;11.88;;;7.45;;
77204;SDS011;66188;46.626;18.866;2022-12-18T10:30:35;16.20;;;8.32;;
77204;SDS011;66188;46.626;18.866;2022-12-18T10:33:01;13.68;;;7.82;;
77204;SDS011;66188;46.626;18.866;2022-12-18T10:35:28;15.20;;;8.40;;
77204;SDS011;66188;46.626;18.866;2022-12-18T10:40:54;12.15;;;7.70;;
77204;SDS011;66188;46.626;18.866;2022-12-18T10:43:28;12.73;;;7.88;;
77204;SDS011;66188;46.626;18.866;2022-12-18T10:48:33;11.18;;;7.40;;
77204;SDS011;66188;46.626;18.866;2022-12-18T10:51:19;14.20;;;8.25;;
77204;SDS011;66188;46.626;18.866;2022-12-18T10:53:51;11.43;;;7.57;;
77204;SDS011;66188;46.626;18.866;2022-12-18T10:56:50;10.82;;;8.02;;
77204;SDS011;66188;46.626;18.866;2022-12-18T10:59:16;13.10;;;7.53;;
77204;SDS011;66188;46.626;18.866;2022-12-18T11:01:47;14.32;;;8.10;;
77204;SDS011;66188;46.626;18.866;2022-12-18T11:04:16;10.50;;;7.72;;
77204;SDS011;66188;46.626;18.866;2022-12-18T11:06:54;11.15;;;7.45;;
77204;SDS011;66188;46.626;18.866;2022-12-18T11:09:34;11.77;;;7.55;;
77204;SDS011;66188;46.626;18.866;2022-12-18T11:12:02;13.05;;;7.90;;
77204;SDS011;66188;46.626;18.866;2022-12-18T11:17:17;12.80;;;7.00;;
77204;SDS011;66188;46.626;18.866;2022-12-18T11:19:45;11.55;;;7.55;;
77204;SDS011;66188;46.626;18.866;2022-12-18T11:22:28;9.75;;;6.65;;
77204;SDS011;66188;46.626;18.866;2022-12-18T11:28:03;11.05;;;7.07;;
77204;SDS011;66188;46.626;18.866;2022-12-18T11:30:49;12.15;;;7.43;;
77204;SDS011;66188;46.626;18.866;2022-12-18T11:33:37;10.38;;;7.20;;
77204;SDS011;66188;46.626;18.866;2022-12-18T11:36:05;11.23;;;7.85;;
77204;SDS011;66188;46.626;18.866;2022-12-18T11:43:58;11.13;;;7.45;;
77204;SDS011;66188;46.626;18.866;2022-12-18T11:49:14;9.77;;;7.75;;
77204;SDS011;66188;46.626;18.866;2022-12-18T11:54:28;10.88;;;7.18;;
77204;SDS011;66188;46.626;18.866;2022-12-18T11:56:56;17.30;;;7.85;;
77204;SDS011;66188;46.626;18.866;2022-12-18T12:02:17;16.42;;;9.07;;
77204;SDS011;66188;46.626;18.866;2022-12-18T12:04:56;14.80;;;9.30;;
77204;SDS011;66188;46.626;18.866;2022-12-18T12:16:09;15.30;;;9.75;;
77204;SDS011;66188;46.626;18.866;2022-12-18T12:21:42;15.07;;;10.20;;
77204;SDS011;66188;46.626;18.866;2022-12-18T12:32:25;18.13;;;10.55;;
77204;SDS011;66188;46.626;18.866;2022-12-18T12:40:30;15.98;;;10.68;;
77204;SDS011;66188;46.626;18.866;2022-12-18T12:45:52;16.98;;;9.98;;
77204;SDS011;66188;46.626;18.866;2022-12-18T12:48:34;18.60;;;11.18;;
77204;SDS011;66188;46.626;18.866;2022-12-18T12:51:10;18.10;;;10.10;;
77204;SDS011;66188;46.626;18.866;2022-12-18T12:53:39;16.25;;;10.32;;
77204;SDS011;66188;46.626;18.866;2022-12-18T12:56:06;15.63;;;10.18;;
77204;SDS011;66188;46.626;18.866;2022-12-18T13:09:02;14.75;;;9.68;;
77204;SDS011;66188;46.626;18.866;2022-12-18T13:14:23;17.58;;;10.43;;
77204;SDS011;66188;46.626;18.866;2022-12-18T13:16:51;15.77;;;9.35;;
77204;SDS011;66188;46.626;18.866;2022-12-18T13:19:23;15.98;;;8.98;;
77204;SDS011;66188;46.626;18.866;2022-12-18T13:21:55;15.82;;;9.90;;
77204;SDS011;66188;46.626;18.866;2022-12-18T13:24:23;16.23;;;9.05;;
77204;SDS011;66188;46.626;18.866;2022-12-18T13:26:51;15.70;;;10.65;;
77204;SDS011;66188;46.626;18.866;2022-12-18T13:29:39;14.63;;;9.52;;
77204;SDS011;66188;46.626;18.866;2022-12-18T13:32:15;14.88;;;9.02;;
77204;SDS011;66188;46.626;18.866;2022-12-18T13:34:45;14.57;;;9.80;;
77204;SDS011;66188;46.626;18.866;2022-12-18T13:40:20;16.75;;;9.93;;
77204;SDS011;66188;46.626;18.866;2022-12-18T13:45:45;15.93;;;9.38;;
77204;SDS011;66188;46.626;18.866;2022-12-18T13:48:26;15.25;;;9.35;;
77204;SDS011;66188;46.626;18.866;2022-12-18T13:50:59;17.02;;;8.85;;
77204;SDS011;66188;46.626;18.866;2022-12-18T13:53:44;14.82;;;8.88;;
77204;SDS011;66188;46.626;18.866;2022-12-18T13:56:17;14.82;;;8.82;;
77204;SDS011;66188;46.626;18.866;2022-12-18T13:58:46;17.35;;;9.57;;
77204;SDS011;66188;46.626;18.866;2022-12-18T14:01:30;14.60;;;9.27;;
77204;SDS011;66188;46.626;18.866;2022-12-18T14:04:08;17.00;;;9.38;;
77204;SDS011;66188;46.626;18.866;2022-12-18T14:06:43;15.25;;;8.27;;
77204;SDS011;66188;46.626;18.866;2022-12-18T14:09:12;15.95;;;8.82;;
77204;SDS011;66188;46.626;18.866;2022-12-18T14:11:40;15.55;;;9.55;;
77204;SDS011;66188;46.626;18.866;2022-12-18T14:14:13;14.52;;;7.78;;
77204;SDS011;66188;46.626;18.866;2022-12-18T14:16:42;13.57;;;8.40;;
77204;SDS011;66188;46.626;18.866;2022-12-18T14:19:10;15.07;;;8.82;;
77204;SDS011;66188;46.626;18.866;2022-12-18T14:21:40;16.35;;;8.75;;
77204;SDS011;66188;46.626;18.866;2022-12-18T14:24:16;14.40;;;8.38;;
77204;SDS011;66188;46.626;18.866;2022-12-18T14:26:43;13.23;;;7.93;;
77204;SDS011;66188;46.626;18.866;2022-12-18T14:32:05;13.85;;;8.07;;
77204;SDS011;66188;46.626;18.866;2022-12-18T14:37:16;14.32;;;7.88;;
77204;SDS011;66188;46.626;18.866;2022-12-18T14:39:55;19.38;;;8.73;;
77204;SDS011;66188;46.626;18.866;2022-12-18T14:42:29;15.57;;;8.05;;
77204;SDS011;66188;46.626;18.866;2022-12-18T14:48:00;15.23;;;7.93;;
77204;SDS011;66188;46.626;18.866;2022-12-18T14:50:31;15.20;;;8.48;;
77204;SDS011;66188;46.626;18.866;2022-12-18T14:52:57;15.88;;;8.65;;
77204;SDS011;66188;46.626;18.866;2022-12-18T14:55:22;16.23;;;8.50;;
77204;SDS011;66188;46.626;18.866;2022-12-18T14:57:49;14.05;;;8.25;;
77204;SDS011;66188;46.626;18.866;2022-12-18T15:00:19;16.73;;;8.45;;
77204;SDS011;66188;46.626;18.866;2022-12-18T15:02:53;17.23;;;9.00;;
77204;SDS011;66188;46.626;18.866;2022-12-18T15:07:50;13.13;;;9.23;;
77204;SDS011;66188;46.626;18.866;2022-12-18T15:12:48;12.60;;;7.75;;
77204;SDS011;66188;46.626;18.866;2022-12-18T15:18:02;12.77;;;8.25;;
77204;SDS011;66188;46.626;18.866;2022-12-18T15:20:32;11.63;;;7.82;;
77204;SDS011;66188;46.626;18.866;2022-12-18T15:23:12;11.80;;;7.53;;
77204;SDS011;66188;46.626;18.866;2022-12-18T15:25:47;13.20;;;7.93;;
77204;SDS011;66188;46.626;18.866;2022-12-18T15:28:21;10.40;;;7.70;;
77204;SDS011;66188;46.626;18.866;2022-12-18T15:33:35;11.88;;;7.90;;
77204;SDS011;66188;46.626;18.866;2022-12-18T15:36:04;12.73;;;7.82;;
77204;SDS011;66188;46.626;18.866;2022-12-18T15:38:36;11.30;;;7.22;;
77204;SDS011;66188;46.626;18.866;2022-12-18T15:41:02;12.05;;;8.00;;
77204;SDS011;66188;46.626;18.866;2022-12-18T15:43:29;11.13;;;7.15;;
77204;SDS011;66188;46.626;18.866;2022-12-18T15:46:11;11.30;;;7.78;;
77204;SDS011;66188;46.626;18.866;2022-12-18T15:48:43;13.35;;;8.23;;
77204;SDS011;66188;46.626;18.866;2022-12-18T15:51:16;13.57;;;7.50;;
77204;SDS011;66188;46.626;18.866;2022-12-18T15:53:54;12.95;;;8.50;;
77204;SDS011;66188;46.626;18.866;2022-12-18T15:56:22;14.10;;;8.23;;
77204;SDS011;66188;46.626;18.866;2022-12-18T15:59:09;11.23;;;8.05;;
77204;SDS011;66188;46.626;18.866;2022-12-18T16:01:37;13.93;;;7.88;;
77204;SDS011;66188;46.626;18.866;2022-12-18T16:04:03;14.35;;;9.52;;
77204;SDS011;66188;46.626;18.866;2022-12-18T16:06:29;13.88;;;8.43;;
77204;SDS011;66188;46.626;18.866;2022-12-18T16:08:55;14.93;;;8.57;;
77204;SDS011;66188;46.626;18.866;2022-12-18T16:14:07;14.80;;;9.15;;
77204;SDS011;66188;46.626;18.866;2022-12-18T16:16:36;15.52;;;9.30;;
77204;SDS011;66188;46.626;18.866;2022-12-18T16:19:02;12.70;;;8.73;;
77204;SDS011;66188;46.626;18.866;2022-12-18T16:21:28;15.60;;;9.20;;
77204;SDS011;66188;46.626;18.866;2022-12-18T16:23:55;17.13;;;10.38;;
77204;SDS011;66188;46.626;18.866;2022-12-18T16:26:21;15.35;;;9.80;;
77204;SDS011;66188;46.626;18.866;2022-12-18T16:28:48;18.05;;;10.52;;
77204;SDS011;66188;46.626;18.866;2022-12-18T16:31:14;15.95;;;9.82;;
77204;SDS011;66188;46.626;18.866;2022-12-18T16:33:40;16.75;;;9.73;;
77204;SDS011;66188;46.626;18.866;2022-12-18T16:36:06;19.48;;;10.80;;
77204;SDS011;66188;46.626;18.866;2022-12-18T16:38:33;16.60;;;10.38;;
77204;SDS011;66188;46.626;18.866;2022-12-18T16:40:59;17.52;;;10.63;;
77204;SDS011;66188;46.626;18.866;2022-12-18T16:43:43;17.83;;;9.77;;
77204;SDS011;66188;46.626;18.866;2022-12-18T16:46:09;16.25;;;10.68;;
77204;SDS011;66188;46.626;18.866;2022-12-18T16:48:35;17.20;;;11.38;;
77204;SDS011;66188;46.626;18.866;2022-12-18T16:51:01;18.70;;;11.40;;
77204;SDS011;66188;46.626;18.866;2022-12-18T16:53:29;16.65;;;10.55;;